createdAt,value
2019-03-11T00:03:54.559Z,4.00
2019-03-11T00:08:59.836Z,4.10
2019-03-11T00:14:05.128Z,4.30
2019-03-11T00:19:10.423Z,4.30
2019-03-11T00:24:15.702Z,4.30
2019-03-11T00:29:21.002Z,4.30
2019-03-11T00:34:26.292Z,4.10
2019-03-11T00:39:31.575Z,4.10
2019-03-11T00:44:36.871Z,4.10
2019-03-11T00:49:42.155Z,4.00
2019-03-11T00:54:47.440Z,3.90
2019-03-11T00:59:52.721Z,4.00
2019-03-11T01:04:58.007Z,4.00
2019-03-11T01:10:03.857Z,3.90
2019-03-11T01:15:11.179Z,3.80
2019-03-11T01:20:16.715Z,3.70
2019-03-11T01:25:22.365Z,3.50
2019-03-11T01:30:28.057Z,3.50
2019-03-11T01:35:33.455Z,3.60
2019-03-11T01:40:39.730Z,3.60
2019-03-11T01:45:44.999Z,3.50
2019-03-11T01:50:51.302Z,3.50
2019-03-11T01:55:56.618Z,3.60
2019-03-11T02:01:02.287Z,3.70
2019-03-11T02:06:09.580Z,3.70
2019-03-11T02:11:14.879Z,3.80
2019-03-11T02:16:21.103Z,3.80
2019-03-11T02:21:26.447Z,3.70
2019-03-11T02:26:32.102Z,3.70
2019-03-11T02:31:38.261Z,3.70
2019-03-11T02:36:44.669Z,3.70
2019-03-11T02:41:50.616Z,3.70
2019-03-11T02:46:55.975Z,3.80
2019-03-11T02:52:01.840Z,3.80
2019-03-11T02:57:07.400Z,3.90
2019-03-11T03:02:31.498Z,3.80
2019-03-11T03:07:36.971Z,3.90
2019-03-11T03:12:42.539Z,3.90
2019-03-11T03:17:48.945Z,4.00
2019-03-11T03:22:54.177Z,4.10
2019-03-11T03:28:00.327Z,4.00
2019-03-11T03:33:05.990Z,4.20
2019-03-11T03:38:11.972Z,4.10
2019-03-11T03:43:17.645Z,4.20
2019-03-11T03:48:23.718Z,4.30
2019-03-11T03:53:30.095Z,4.20
2019-03-11T03:58:35.380Z,4.20
2019-03-11T04:03:41.588Z,4.20
2019-03-11T04:08:47.570Z,4.20
2019-03-11T04:13:54.240Z,4.20
2019-03-11T04:19:00.696Z,4.20
2019-03-11T04:24:06.102Z,4.30
2019-03-11T04:29:12.357Z,4.20
2019-03-11T04:34:18.725Z,4.20
2019-03-11T04:39:24.018Z,4.20
2019-03-11T04:44:30.104Z,4.10
2019-03-11T04:49:35.431Z,4.10
2019-03-11T04:54:41.473Z,4.10
2019-03-11T04:59:46.954Z,4.00
2019-03-11T05:04:52.536Z,4.00
2019-03-11T05:09:59.221Z,4.10
2019-03-11T05:15:04.913Z,4.00
2019-03-11T05:20:11.345Z,4.00
2019-03-11T05:25:18.194Z,4.10
2019-03-11T05:30:24.362Z,4.20
2019-03-11T05:35:30.027Z,4.20
2019-03-11T05:40:35.311Z,4.20
2019-03-11T05:45:40.607Z,4.20
2019-03-11T05:50:45.896Z,4.20
2019-03-11T05:55:51.260Z,4.20
2019-03-11T06:00:57.449Z,4.20
2019-03-11T06:06:02.741Z,4.20
2019-03-11T06:11:08.043Z,4.20
2019-03-11T06:16:13.336Z,4.20
2019-03-11T06:21:30.388Z,4.20
2019-03-11T06:26:35.688Z,4.20
2019-03-11T06:31:40.981Z,4.40
2019-03-11T06:36:46.267Z,4.40
2019-03-11T06:41:51.551Z,4.40
2019-03-11T06:46:56.836Z,4.30
2019-03-11T06:57:09.265Z,4.40
2019-03-11T07:02:15.699Z,4.40
2019-03-11T07:07:21.059Z,4.50
2019-03-11T07:12:26.354Z,4.50
2019-03-11T07:17:31.667Z,4.60
2019-03-11T07:22:36.947Z,4.60
2019-03-11T07:27:42.243Z,4.70
2019-03-11T07:32:47.527Z,4.80
2019-03-11T07:37:52.812Z,4.80
2019-03-11T07:42:58.091Z,4.90
2019-03-11T07:48:03.378Z,4.90
2019-03-11T07:53:09.174Z,4.90
2019-03-11T07:58:14.455Z,4.90
2019-03-11T08:03:19.756Z,4.90
2019-03-11T08:08:25.047Z,4.90
2019-03-11T08:13:30.335Z,1.40
2019-03-11T08:18:36.597Z,1.20
2019-03-11T08:28:46.569Z,1.60
2019-03-11T08:33:51.875Z,1.90
2019-03-11T08:38:58.203Z,2.00
2019-03-11T08:44:03.491Z,2.10
2019-03-11T08:49:10.433Z,2.10
2019-03-11T08:54:17.254Z,2.10
2019-03-11T08:59:23.255Z,2.10
2019-03-11T09:04:28.556Z,2.10
2019-03-11T09:09:33.930Z,2.10
2019-03-11T09:14:39.153Z,2.30
2019-03-11T09:19:44.462Z,2.90
2019-03-11T09:24:49.739Z,3.40
2019-03-11T09:29:55.037Z,3.50
2019-03-11T09:35:00.344Z,3.20
2019-03-11T09:40:06.536Z,3.10
2019-03-11T09:45:12.505Z,3.10
2019-03-11T09:50:18.205Z,3.20
2019-03-11T09:55:23.510Z,3.20
2019-03-11T10:00:29.292Z,3.30
2019-03-11T10:05:35.914Z,3.20
2019-03-11T10:10:41.960Z,3.10
2019-03-11T10:15:48.564Z,2.90
2019-03-11T10:20:55.354Z,2.80
2019-03-11T10:26:01.836Z,3.20
2019-03-11T10:31:07.504Z,3.40
2019-03-11T10:36:14.036Z,3.50
2019-03-11T10:41:19.499Z,3.70
2019-03-11T10:46:25.213Z,4.10
2019-03-11T10:51:31.570Z,4.00
2019-03-11T10:56:38.489Z,2.30
2019-03-11T11:01:44.081Z,1.70
2019-03-11T11:06:49.748Z,1.90
2019-03-11T11:11:55.050Z,3.10
2019-03-11T11:17:00.376Z,3.10
2019-03-11T11:22:05.663Z,3.80
2019-03-11T11:27:11.063Z,4.40
2019-03-11T11:32:16.356Z,5.20
2019-03-11T11:37:21.639Z,5.60
2019-03-11T11:42:26.927Z,6.20
2019-03-11T11:47:32.219Z,5.60
2019-03-11T11:52:37.527Z,5.80
2019-03-11T11:57:43.001Z,5.20
2019-03-11T12:02:48.316Z,4.90
2019-03-11T12:07:53.610Z,4.80
2019-03-11T12:12:58.900Z,4.70
2019-03-11T12:18:04.203Z,4.50
2019-03-11T12:23:09.489Z,4.10
2019-03-11T12:28:14.778Z,4.20
2019-03-11T12:33:20.555Z,4.40
2019-03-11T12:38:28.620Z,4.60
2019-03-11T12:43:32.871Z,4.60
2019-03-11T12:48:38.170Z,4.50
2019-03-11T12:53:43.447Z,4.80
2019-03-11T12:58:48.753Z,5.90
2019-03-11T13:03:55.043Z,6.90
2019-03-11T13:09:01.295Z,6.90
2019-03-11T13:14:08.204Z,7.30
2019-03-11T13:19:13.814Z,7.70
2019-03-11T13:24:20.107Z,7.40
2019-03-11T13:29:26.015Z,7.50
2019-03-11T13:34:32.590Z,7.70
2019-03-11T13:39:38.383Z,7.10
2019-03-11T13:44:44.992Z,6.90
2019-03-11T13:49:52.376Z,6.90
2019-03-11T13:55:06.327Z,6.70
2019-03-11T14:00:05.852Z,5.70
2019-03-11T14:05:12.867Z,5.10
2019-03-11T14:10:18.220Z,5.00
2019-03-11T14:15:23.583Z,4.40
2019-03-11T14:20:28.953Z,2.90
2019-03-11T14:25:34.243Z,2.80
2019-03-11T14:30:39.536Z,2.90
2019-03-11T14:35:45.504Z,3.20
2019-03-11T14:40:50.987Z,4.70
2019-03-11T14:45:56.701Z,5.90
2019-03-11T14:51:02.247Z,6.60
2019-03-11T14:56:08.195Z,6.50
2019-03-11T15:01:13.815Z,5.50
2019-03-11T15:06:19.655Z,4.80
2019-03-11T15:11:25.533Z,4.60
2019-03-11T15:16:31.041Z,3.60
2019-03-11T15:21:37.238Z,2.10
2019-03-11T15:26:42.936Z,2.10
2019-03-11T15:31:48.383Z,2.80
2019-03-11T15:36:54.184Z,4.60
2019-03-11T15:41:59.489Z,5.70
2019-03-11T15:47:04.974Z,6.50
2019-03-11T15:52:10.638Z,5.80
2019-03-11T15:57:15.915Z,5.20
2019-03-11T16:02:21.334Z,4.30
2019-03-11T16:07:26.664Z,4.10
2019-03-11T16:12:31.954Z,4.00
2019-03-11T16:17:37.276Z,3.80
2019-03-11T16:22:42.591Z,3.40
2019-03-11T16:27:47.883Z,3.10
2019-03-11T16:33:01.487Z,3.10
2019-03-11T16:38:00.871Z,3.10
2019-03-11T16:43:06.186Z,3.10
2019-03-11T16:48:11.516Z,3.10
2019-03-11T16:53:16.828Z,3.20
2019-03-11T16:58:22.962Z,3.20
2019-03-11T17:03:28.299Z,3.20
2019-03-11T17:08:33.627Z,3.20
2019-03-11T17:13:39.109Z,3.20
2019-03-11T17:18:44.473Z,3.20
2019-03-11T17:23:49.819Z,3.20
2019-03-11T17:28:55.137Z,3.20
2019-03-11T17:34:00.446Z,3.20
2019-03-11T17:39:07.551Z,3.20
2019-03-11T17:44:13.932Z,3.20
2019-03-11T17:49:19.308Z,3.30
2019-03-11T17:54:24.662Z,3.20
2019-03-11T17:59:29.927Z,3.10
2019-03-11T18:04:35.446Z,3.10
2019-03-11T18:09:40.809Z,3.30
2019-03-11T18:14:46.156Z,3.60
2019-03-11T18:19:51.472Z,3.70
2019-03-11T18:24:56.763Z,3.70
2019-03-11T18:30:02.044Z,3.70
2019-03-11T18:35:09.110Z,3.50
2019-03-11T18:40:16.227Z,3.60
2019-03-11T18:45:21.884Z,3.60
2019-03-11T18:50:27.297Z,3.50
2019-03-11T18:55:34.995Z,3.50
2019-03-11T19:00:40.438Z,3.40
2019-03-11T19:05:45.803Z,3.40
2019-03-11T19:10:51.179Z,3.40
2019-03-11T19:15:56.564Z,3.40
2019-03-11T19:26:07.104Z,3.20
2019-03-11T19:31:12.475Z,3.20
2019-03-11T19:36:17.767Z,3.20
2019-03-11T19:41:23.201Z,3.20
2019-03-11T19:46:28.636Z,3.10
2019-03-11T19:51:34.056Z,3.10
2019-03-11T19:56:39.396Z,3.00
2019-03-11T20:06:49.571Z,2.80
2019-03-11T20:11:55.026Z,2.80
2019-03-11T20:27:10.442Z,2.70
2019-03-11T20:47:30.848Z,2.70
2019-03-11T20:52:36.149Z,2.70
2019-03-11T21:02:50.458Z,2.80
2019-03-11T21:13:04.472Z,2.90
2019-03-11T21:33:29.356Z,2.80
2019-03-11T21:38:35.711Z,2.80
2019-03-11T21:43:41.917Z,2.80
2019-03-11T21:48:47.428Z,2.80
2019-03-11T21:53:53.110Z,2.80
2019-03-11T21:58:58.554Z,2.80
2019-03-11T22:04:03.907Z,2.70
2019-03-11T22:09:09.495Z,2.70
2019-03-11T22:19:20.030Z,2.40
2019-03-11T22:29:29.932Z,2.30
2019-03-11T22:39:39.927Z,2.20
2019-03-11T22:44:45.239Z,2.20
2019-03-11T22:49:50.543Z,2.20
2019-03-11T23:00:00.543Z,2.30
2019-03-11T23:05:09.111Z,2.30
2019-03-11T23:10:14.758Z,2.50
2019-03-11T23:15:20.057Z,2.40
2019-03-11T23:20:25.360Z,2.30
2019-03-11T23:25:30.688Z,2.20
2019-03-11T23:30:35.999Z,2.00
2019-03-11T23:35:41.543Z,2.10
2019-03-11T23:40:47.008Z,2.10
2019-03-11T23:50:56.994Z,2.20
2019-03-11T23:56:02.277Z,2.20
